createdAt,value
2017-11-07T00:02:06.359Z,11.05
2017-11-07T00:04:32.602Z,11.00
2017-11-07T00:06:58.830Z,10.73
2017-11-07T00:09:25.128Z,11.23
2017-11-07T00:11:52.161Z,11.23
2017-11-07T00:14:18.474Z,11.52
2017-11-07T00:16:44.748Z,11.43
2017-11-07T00:19:11.011Z,13.73
2017-11-07T00:21:37.274Z,11.60
2017-11-07T00:24:03.531Z,13.65
2017-11-07T00:26:29.814Z,14.45
2017-11-07T00:28:56.081Z,13.20
2017-11-07T00:31:22.351Z,13.73
2017-11-07T00:33:48.637Z,14.52
2017-11-07T00:36:14.885Z,13.95
2017-11-07T00:38:41.138Z,11.85
2017-11-07T00:41:07.420Z,13.45
2017-11-07T00:43:34.423Z,11.85
2017-11-07T00:46:00.672Z,12.20
2017-11-07T00:48:26.922Z,13.20
2017-11-07T00:50:53.179Z,13.95
2017-11-07T00:53:19.439Z,12.43
2017-11-07T00:55:45.703Z,13.65
2017-11-07T00:58:11.956Z,13.05
2017-11-07T01:00:38.263Z,13.73
2017-11-07T01:03:04.553Z,13.93
2017-11-07T01:05:30.845Z,12.77
2017-11-07T01:07:57.140Z,13.35
2017-11-07T01:10:23.412Z,13.38
2017-11-07T01:12:49.676Z,13.73
2017-11-07T01:15:15.930Z,13.88
2017-11-07T01:17:42.173Z,13.73
2017-11-07T01:20:08.438Z,14.13
2017-11-07T01:22:34.683Z,14.75
2017-11-07T01:25:00.902Z,14.07
2017-11-07T01:27:27.187Z,14.63
2017-11-07T01:29:53.523Z,15.52
2017-11-07T01:32:20.478Z,15.25
2017-11-07T01:34:46.754Z,15.55
2017-11-07T01:37:14.029Z,15.77
2017-11-07T01:39:40.362Z,15.20
2017-11-07T01:42:06.634Z,14.52
2017-11-07T01:44:32.892Z,12.50
2017-11-07T01:46:59.901Z,12.65
2017-11-07T01:49:26.172Z,9.75
2017-11-07T01:51:52.422Z,12.45
2017-11-07T01:54:18.691Z,11.32
2017-11-07T01:56:44.974Z,13.35
2017-11-07T01:59:11.259Z,11.82
2017-11-07T02:01:37.573Z,12.05
2017-11-07T02:04:03.832Z,11.70
2017-11-07T02:06:30.040Z,12.93
2017-11-07T02:08:56.323Z,11.98
2017-11-07T02:11:22.904Z,13.30
2017-11-07T02:13:49.954Z,12.43
2017-11-07T02:18:50.029Z,12.57
2017-11-07T02:21:16.349Z,14.38
2017-11-07T02:23:42.688Z,12.68
2017-11-07T02:26:08.972Z,12.50
2017-11-07T02:28:36.022Z,12.13
2017-11-07T02:31:03.062Z,10.68
2017-11-07T02:33:29.452Z,11.95
2017-11-07T02:35:55.730Z,12.30
2017-11-07T02:38:22.789Z,10.45
2017-11-07T02:40:49.124Z,11.43
2017-11-07T02:43:15.414Z,12.73
2017-11-07T02:45:42.438Z,11.00
2017-11-07T02:48:08.704Z,12.82
2017-11-07T02:50:34.976Z,11.88
2017-11-07T02:53:01.275Z,11.75
2017-11-07T02:55:27.545Z,12.55
2017-11-07T02:57:53.818Z,12.18
2017-11-07T03:00:20.099Z,13.90
2017-11-07T03:02:46.343Z,13.55
2017-11-07T03:05:12.609Z,13.48
2017-11-07T03:07:38.854Z,13.30
2017-11-07T03:10:05.163Z,14.07
2017-11-07T03:12:31.422Z,13.27
2017-11-07T03:14:58.010Z,15.63
2017-11-07T03:17:24.983Z,15.75
2017-11-07T03:19:51.253Z,15.02
2017-11-07T03:22:17.515Z,14.40
2017-11-07T03:24:44.512Z,14.40
2017-11-07T03:27:10.803Z,14.13
2017-11-07T03:29:37.274Z,14.80
2017-11-07T03:32:03.540Z,15.50
2017-11-07T03:34:30.543Z,14.93
2017-11-07T03:36:56.780Z,13.93
2017-11-07T03:39:23.058Z,13.85
2017-11-07T03:41:49.246Z,14.35
2017-11-07T03:44:15.522Z,15.07
2017-11-07T03:46:41.793Z,16.90
2017-11-07T03:49:08.054Z,16.05
2017-11-07T03:51:35.050Z,16.58
2017-11-07T03:54:01.316Z,16.40
2017-11-07T03:56:28.351Z,16.65
2017-11-07T03:58:54.588Z,17.60
2017-11-07T04:01:21.583Z,16.40
2017-11-07T04:03:47.825Z,15.95
2017-11-07T04:06:14.092Z,16.60
2017-11-07T04:08:41.100Z,15.70
2017-11-07T04:11:07.323Z,15.07
2017-11-07T04:13:33.569Z,17.87
2017-11-07T04:15:59.818Z,16.95
2017-11-07T04:18:26.838Z,15.18
2017-11-07T04:20:53.131Z,13.75
2017-11-07T04:23:19.439Z,13.90
2017-11-07T04:25:45.684Z,14.63
2017-11-07T04:28:11.952Z,14.00
2017-11-07T04:30:38.226Z,14.52
2017-11-07T04:33:04.541Z,14.68
2017-11-07T04:35:30.797Z,14.80
2017-11-07T04:37:57.037Z,14.48
2017-11-07T04:40:23.281Z,13.35
2017-11-07T04:42:49.583Z,13.20
2017-11-07T04:45:15.837Z,13.55
2017-11-07T04:47:42.064Z,14.55
2017-11-07T04:50:08.326Z,12.23
2017-11-07T04:52:35.299Z,14.05
2017-11-07T04:55:01.572Z,13.90
2017-11-07T04:57:27.829Z,14.30
2017-11-07T04:59:54.115Z,12.80
2017-11-07T05:02:21.361Z,12.73
2017-11-07T05:04:47.611Z,10.60
2017-11-07T05:07:14.609Z,12.55
2017-11-07T05:09:40.854Z,11.90
2017-11-07T05:12:07.083Z,11.12
2017-11-07T05:14:33.303Z,11.85
2017-11-07T05:16:59.729Z,11.25
2017-11-07T05:19:25.961Z,12.02
2017-11-07T05:21:52.216Z,12.45
2017-11-07T05:24:18.474Z,11.10
2017-11-07T05:26:44.759Z,12.70
2017-11-07T05:29:11.029Z,9.65
2017-11-07T05:31:37.275Z,11.75
2017-11-07T05:34:03.545Z,9.90
2017-11-07T05:36:29.794Z,11.85
2017-11-07T05:38:56.761Z,11.70
2017-11-07T05:41:23.015Z,13.68
2017-11-07T05:43:50.016Z,12.02
2017-11-07T05:46:17.109Z,12.05
2017-11-07T05:48:43.407Z,12.55
2017-11-07T05:51:09.700Z,12.15
2017-11-07T05:53:35.978Z,13.62
2017-11-07T05:56:02.251Z,13.15
2017-11-07T05:58:28.521Z,14.20
2017-11-07T06:00:54.770Z,13.27
2017-11-07T06:03:23.768Z,15.75
2017-11-07T06:05:50.446Z,14.25
2017-11-07T06:08:17.690Z,14.02
2017-11-07T06:10:43.928Z,13.38
2017-11-07T06:13:10.936Z,15.07
2017-11-07T06:15:37.202Z,13.95
2017-11-07T06:18:04.173Z,14.90
2017-11-07T06:20:30.439Z,15.32
2017-11-07T06:22:56.660Z,15.20
2017-11-07T06:25:22.900Z,14.95
2017-11-07T06:27:49.215Z,16.00
2017-11-07T06:30:16.261Z,17.60
2017-11-07T06:32:42.561Z,16.62
2017-11-07T06:35:08.795Z,16.55
2017-11-07T06:37:35.063Z,16.35
2017-11-07T06:40:01.370Z,16.87
2017-11-07T06:42:27.639Z,16.83
2017-11-07T06:44:54.654Z,17.33
2017-11-07T06:47:20.895Z,16.75
2017-11-07T06:49:47.151Z,16.73
2017-11-07T06:52:13.373Z,17.65
2017-11-07T06:54:40.345Z,17.05
2017-11-07T06:57:06.635Z,16.87
2017-11-07T06:59:33.623Z,16.27
2017-11-07T07:01:59.920Z,16.17
2017-11-07T07:04:26.910Z,17.35
2017-11-07T07:06:53.145Z,16.12
2017-11-07T07:09:19.407Z,17.70
2017-11-07T07:11:46.389Z,15.07
2017-11-07T07:14:12.636Z,15.40
2017-11-07T07:16:38.867Z,15.43
2017-11-07T07:19:05.120Z,16.20
2017-11-07T07:21:31.367Z,16.30
2017-11-07T07:23:58.360Z,16.15
2017-11-07T07:26:24.601Z,15.88
2017-11-07T07:28:50.869Z,15.55
2017-11-07T07:31:17.179Z,16.55
2017-11-07T07:33:44.334Z,14.52
2017-11-07T07:36:10.606Z,14.32
2017-11-07T07:38:36.866Z,15.90
2017-11-07T07:41:03.110Z,16.70
2017-11-07T07:43:30.127Z,16.40
2017-11-07T07:45:56.387Z,16.40
2017-11-07T07:48:23.641Z,16.15
2017-11-07T07:50:50.614Z,16.23
2017-11-07T07:53:16.851Z,17.35
2017-11-07T07:55:43.100Z,17.27
2017-11-07T07:58:09.330Z,17.83
2017-11-07T08:00:35.581Z,17.25
2017-11-07T08:03:02.584Z,17.02
2017-11-07T08:05:29.166Z,16.42
2017-11-07T08:07:56.214Z,16.30
2017-11-07T08:10:23.200Z,18.23
2017-11-07T08:12:49.545Z,16.87
2017-11-07T08:15:15.851Z,18.10
2017-11-07T08:17:42.155Z,18.48
2017-11-07T08:20:09.180Z,17.85
2017-11-07T08:22:36.178Z,18.30
2017-11-07T08:25:02.434Z,19.73
2017-11-07T08:27:28.689Z,16.42
2017-11-07T08:29:55.721Z,19.00
2017-11-07T08:32:21.947Z,17.67
2017-11-07T08:34:48.955Z,18.10
2017-11-07T08:37:15.193Z,18.70
2017-11-07T08:39:41.766Z,18.83
2017-11-07T08:42:08.877Z,18.65
2017-11-07T08:44:35.142Z,18.87
2017-11-07T08:47:02.157Z,18.37
2017-11-07T08:49:28.447Z,18.05
2017-11-07T08:51:54.857Z,19.52
2017-11-07T08:54:21.165Z,19.70
2017-11-07T08:56:48.205Z,19.65
2017-11-07T08:59:14.453Z,20.62
2017-11-07T09:01:41.455Z,22.27
2017-11-07T09:04:07.713Z,19.02
2017-11-07T09:06:34.666Z,18.25
2017-11-07T09:09:01.708Z,21.23
2017-11-07T09:11:27.971Z,19.20
2017-11-07T09:13:54.259Z,23.17
2017-11-07T09:16:21.255Z,24.10
2017-11-07T09:18:47.536Z,21.98
2017-11-07T09:21:14.544Z,22.23
2017-11-07T09:23:40.765Z,23.90
2017-11-07T09:26:07.059Z,23.02
2017-11-07T09:28:33.329Z,24.05
2017-11-07T09:30:59.593Z,22.10
2017-11-07T09:33:26.614Z,22.73
2017-11-07T09:35:52.871Z,23.42
2017-11-07T09:38:19.928Z,23.25
2017-11-07T09:40:46.157Z,23.90
2017-11-07T09:43:12.434Z,26.70
2017-11-07T09:45:38.713Z,26.85
2017-11-07T09:48:04.988Z,26.27
2017-11-07T09:50:31.229Z,25.12
2017-11-07T09:52:57.445Z,26.90
2017-11-07T09:55:30.550Z,25.17
2017-11-07T09:57:57.547Z,28.87
2017-11-07T10:00:23.829Z,29.00
2017-11-07T10:02:50.832Z,27.95
2017-11-07T10:05:17.120Z,28.30
2017-11-07T10:07:43.345Z,27.52
2017-11-07T10:10:09.629Z,29.60
2017-11-07T10:12:35.899Z,29.12
2017-11-07T10:15:02.152Z,30.50
2017-11-07T10:17:28.444Z,27.45
2017-11-07T10:19:55.469Z,28.08
2017-11-07T10:22:21.757Z,27.90
2017-11-07T10:24:48.044Z,28.62
2017-11-07T10:27:15.062Z,26.65
2017-11-07T10:29:41.739Z,24.20
2017-11-07T10:32:08.074Z,29.08
2017-11-07T10:34:34.431Z,28.60
2017-11-07T10:37:00.732Z,29.55
2017-11-07T10:39:26.984Z,30.40
2017-11-07T10:41:53.248Z,25.67
2017-11-07T10:44:19.754Z,27.67
2017-11-07T10:46:46.018Z,28.85
2017-11-07T10:49:13.025Z,28.30
2017-11-07T10:51:39.299Z,28.08
2017-11-07T10:54:06.318Z,27.40
2017-11-07T10:56:32.604Z,29.05
2017-11-07T10:58:58.847Z,28.75
2017-11-07T11:01:25.124Z,27.70
2017-11-07T11:03:52.108Z,28.02
2017-11-07T11:06:20.732Z,27.98
2017-11-07T11:08:47.014Z,27.92
2017-11-07T11:11:13.280Z,28.20
2017-11-07T11:13:39.844Z,27.17
2017-11-07T11:16:06.818Z,29.83
2017-11-07T11:18:33.109Z,27.98
2017-11-07T11:21:00.133Z,27.37
2017-11-07T11:23:26.626Z,30.55
2017-11-07T11:25:52.892Z,28.92
2017-11-07T11:28:20.691Z,29.08
2017-11-07T11:30:47.674Z,31.33
2017-11-07T11:33:13.944Z,29.55
2017-11-07T11:35:40.933Z,30.80
2017-11-07T11:38:07.234Z,29.67
2017-11-07T11:40:34.248Z,32.33
2017-11-07T11:43:00.528Z,29.52
2017-11-07T11:45:26.844Z,29.92
2017-11-07T11:47:53.088Z,29.92
2017-11-07T11:50:19.792Z,29.87
2017-11-07T11:52:46.080Z,27.13
2017-11-07T11:55:12.349Z,32.72
2017-11-07T11:57:39.404Z,32.20
2017-11-07T12:00:05.701Z,29.08
2017-11-07T12:02:31.976Z,30.65
2017-11-07T12:04:58.241Z,33.70
2017-11-07T12:07:24.520Z,30.20
2017-11-07T12:09:50.820Z,30.40
2017-11-07T12:12:17.080Z,30.02
2017-11-07T12:14:43.322Z,29.42
2017-11-07T12:17:09.617Z,32.45
2017-11-07T12:19:36.619Z,31.70
2017-11-07T12:22:02.945Z,29.67
2017-11-07T12:24:29.234Z,29.10
2017-11-07T12:26:55.524Z,31.37
2017-11-07T12:29:21.866Z,32.08
2017-11-07T12:31:48.927Z,27.60
2017-11-07T12:34:15.222Z,30.35
2017-11-07T12:36:41.507Z,28.20
2017-11-07T12:39:07.819Z,30.85
2017-11-07T12:41:34.060Z,29.75
2017-11-07T12:44:00.373Z,29.48
2017-11-07T12:46:26.634Z,30.48
2017-11-07T12:48:52.879Z,27.73
2017-11-07T12:51:30.466Z,29.90
2017-11-07T12:53:57.454Z,30.95
2017-11-07T12:56:24.463Z,28.60
2017-11-07T12:58:50.888Z,31.55
2017-11-07T13:01:17.265Z,29.63
2017-11-07T13:03:43.561Z,30.00
2017-11-07T13:06:09.808Z,29.73
2017-11-07T13:08:36.863Z,28.77
2017-11-07T13:11:03.129Z,29.80
2017-11-07T13:13:29.719Z,30.12
2017-11-07T13:15:55.961Z,30.98
2017-11-07T13:18:22.208Z,28.62
2017-11-07T13:20:49.208Z,32.25
2017-11-07T13:23:16.186Z,32.53
2017-11-07T13:25:42.455Z,31.70
2017-11-07T13:28:08.713Z,31.48
2017-11-07T13:30:35.341Z,30.20
2017-11-07T13:33:02.390Z,28.75
2017-11-07T13:35:29.389Z,30.75
2017-11-07T13:37:55.681Z,28.77
2017-11-07T13:40:21.967Z,27.45
2017-11-07T13:42:48.249Z,30.75
2017-11-07T13:45:14.539Z,31.00
2017-11-07T13:47:40.804Z,28.40
2017-11-07T13:50:07.068Z,31.65
2017-11-07T13:52:33.321Z,31.50
2017-11-07T13:54:59.592Z,30.33
2017-11-07T13:57:25.836Z,28.75
2017-11-07T13:59:52.123Z,30.65
2017-11-07T14:02:18.409Z,30.48
2017-11-07T14:04:44.689Z,30.62
2017-11-07T14:07:10.930Z,31.17
2017-11-07T14:09:37.195Z,29.63
2017-11-07T14:12:03.764Z,29.15
2017-11-07T14:14:30.714Z,30.35
2017-11-07T14:16:56.943Z,30.15
2017-11-07T14:19:23.214Z,30.77
2017-11-07T14:21:49.466Z,31.37
2017-11-07T14:24:15.864Z,33.42
2017-11-07T14:26:42.125Z,31.25
2017-11-07T14:29:08.680Z,30.08
2017-11-07T14:31:35.691Z,31.20
2017-11-07T14:34:04.346Z,30.95
2017-11-07T14:36:30.633Z,31.70
2017-11-07T14:38:57.618Z,31.02
2017-11-07T14:41:30.977Z,32.35
2017-11-07T14:43:58.035Z,30.88
2017-11-07T14:46:24.264Z,32.80
2017-11-07T14:48:50.533Z,32.75
2017-11-07T14:51:16.789Z,30.23
2017-11-07T14:53:43.087Z,32.22
2017-11-07T14:56:09.328Z,30.92
2017-11-07T14:58:35.569Z,32.67
2017-11-07T15:01:01.829Z,32.70
2017-11-07T15:03:28.074Z,32.72
2017-11-07T15:05:54.344Z,33.05
2017-11-07T15:08:21.327Z,34.75
2017-11-07T15:10:47.587Z,33.47
2017-11-07T15:13:14.281Z,33.28
2017-11-07T15:15:40.534Z,32.80
2017-11-07T15:18:06.796Z,35.00
2017-11-07T15:20:33.113Z,33.33
2017-11-07T15:22:59.385Z,35.03
2017-11-07T15:25:26.665Z,34.30
2017-11-07T15:27:52.879Z,35.08
2017-11-07T15:30:19.157Z,34.47
2017-11-07T15:32:45.512Z,35.55
2017-11-07T15:35:12.497Z,34.35
2017-11-07T15:37:38.768Z,34.78
2017-11-07T15:40:05.071Z,34.75
2017-11-07T15:42:31.297Z,33.65
2017-11-07T15:44:57.545Z,34.30
2017-11-07T15:47:23.798Z,33.85
2017-11-07T15:49:50.827Z,33.78
2017-11-07T15:52:17.074Z,34.00
2017-11-07T15:54:44.059Z,35.03
2017-11-07T15:57:10.417Z,31.17
2017-11-07T15:59:36.703Z,33.45
2017-11-07T16:02:03.030Z,35.35
2017-11-07T16:04:29.277Z,33.53
2017-11-07T16:06:55.540Z,33.97
2017-11-07T16:09:22.092Z,34.75
2017-11-07T16:11:49.076Z,34.80
2017-11-07T16:14:15.336Z,32.40
2017-11-07T16:16:41.619Z,35.33
2017-11-07T16:19:07.862Z,33.45
2017-11-07T16:21:41.187Z,34.25
2017-11-07T16:24:07.478Z,34.85
2017-11-07T16:26:33.763Z,34.08
2017-11-07T16:29:00.766Z,35.92
2017-11-07T16:31:27.037Z,34.40
2017-11-07T16:33:54.100Z,36.22
2017-11-07T16:36:20.336Z,33.65
2017-11-07T16:38:46.615Z,34.08
2017-11-07T16:41:12.886Z,34.45
2017-11-07T16:43:39.120Z,34.55
2017-11-07T16:46:05.431Z,32.35
2017-11-07T16:48:31.716Z,33.53
2017-11-07T16:50:58.005Z,34.58
2017-11-07T16:53:24.275Z,34.40
2017-11-07T16:55:50.553Z,32.83
2017-11-07T16:58:16.835Z,34.60
2017-11-07T17:00:43.111Z,33.80
2017-11-07T17:03:09.385Z,32.72
2017-11-07T17:05:35.668Z,33.90
2017-11-07T17:08:01.984Z,35.13
2017-11-07T17:10:28.263Z,33.70
2017-11-07T17:12:54.537Z,33.95
2017-11-07T17:15:20.849Z,36.03
2017-11-07T17:17:47.867Z,36.75
2017-11-07T17:20:14.151Z,33.75
2017-11-07T17:22:40.405Z,34.95
2017-11-07T17:25:06.698Z,35.55
2017-11-07T17:27:32.995Z,35.80
2017-11-07T17:29:59.287Z,34.47
2017-11-07T17:32:25.625Z,35.10
2017-11-07T17:34:51.880Z,32.10
2017-11-07T17:37:18.225Z,31.70
2017-11-07T17:39:45.349Z,32.83
2017-11-07T17:42:11.628Z,33.42
2017-11-07T17:44:37.932Z,33.55
2017-11-07T17:47:05.009Z,35.50
2017-11-07T17:49:31.615Z,33.50
2017-11-07T17:51:57.879Z,35.22
2017-11-07T17:54:24.317Z,32.85
2017-11-07T17:56:50.669Z,35.08
2017-11-07T17:59:16.966Z,35.80
2017-11-07T18:01:43.281Z,35.03
2017-11-07T18:04:09.571Z,35.00
2017-11-07T18:06:36.616Z,37.58
2017-11-07T18:09:02.994Z,38.47
2017-11-07T18:11:29.288Z,38.63
2017-11-07T18:13:56.343Z,38.63
2017-11-07T18:16:22.635Z,40.92
2017-11-07T18:18:48.966Z,38.70
2017-11-07T18:21:15.276Z,39.92
2017-11-07T18:23:41.604Z,42.17
2017-11-07T18:26:07.997Z,42.88
2017-11-07T18:28:34.322Z,40.20
2017-11-07T18:31:00.635Z,40.83
2017-11-07T18:33:27.755Z,41.92
2017-11-07T18:35:54.047Z,39.47
2017-11-07T18:38:20.397Z,37.90
2017-11-07T18:40:46.703Z,41.25
2017-11-07T18:43:13.027Z,39.17
2017-11-07T18:45:39.358Z,40.88
2017-11-07T18:48:05.686Z,39.85
2017-11-07T18:50:32.049Z,41.37
2017-11-07T18:52:58.403Z,39.88
2017-11-07T18:55:25.816Z,40.47
2017-11-07T18:57:52.160Z,42.83
2017-11-07T19:00:18.540Z,41.65
2017-11-07T19:02:44.889Z,43.10
2017-11-07T19:05:11.252Z,45.45
2017-11-07T19:07:37.616Z,41.45
2017-11-07T19:10:04.758Z,42.45
2017-11-07T19:12:31.824Z,41.55
2017-11-07T19:14:58.188Z,43.67
2017-11-07T19:17:25.690Z,42.62
2017-11-07T19:19:53.046Z,41.47
2017-11-07T19:22:20.618Z,43.65
2017-11-07T19:24:48.241Z,38.17
2017-11-07T19:27:14.772Z,38.33
2017-11-07T19:29:42.436Z,41.70
2017-11-07T19:32:09.220Z,40.72
2017-11-07T19:34:35.578Z,42.17
2017-11-07T19:37:02.140Z,41.60
2017-11-07T19:39:29.635Z,40.00
2017-11-07T19:41:57.165Z,38.35
2017-11-07T19:44:27.542Z,44.05
2017-11-07T19:46:54.145Z,44.25
2017-11-07T19:49:21.608Z,42.40
2017-11-07T19:51:49.903Z,41.30
2017-11-07T19:54:25.865Z,43.38
2017-11-07T19:56:52.695Z,43.22
2017-11-07T19:59:21.108Z,41.15
2017-11-07T20:01:47.608Z,44.00
2017-11-07T20:04:14.007Z,43.90
2017-11-07T20:06:40.452Z,42.47
2017-11-07T20:09:06.811Z,42.17
2017-11-07T20:11:33.300Z,41.97
2017-11-07T20:13:59.610Z,41.30
2017-11-07T20:16:27.079Z,43.85
2017-11-07T20:18:53.438Z,43.58
2017-11-07T20:21:19.808Z,42.92
2017-11-07T20:23:46.161Z,43.40
2017-11-07T20:26:13.529Z,42.88
2017-11-07T20:28:39.898Z,42.85
2017-11-07T20:31:06.228Z,42.62
2017-11-07T20:33:33.798Z,41.00
2017-11-07T20:36:00.310Z,43.92
2017-11-07T20:38:26.621Z,44.25
2017-11-07T20:40:54.098Z,43.58
2017-11-07T20:43:21.336Z,37.70
2017-11-07T20:45:48.830Z,35.92
2017-11-07T20:48:16.208Z,29.00
2017-11-07T20:50:42.602Z,25.92
2017-11-07T20:53:08.955Z,22.52
2017-11-07T20:55:36.382Z,23.15
2017-11-07T20:58:03.112Z,22.15
2017-11-07T21:00:29.483Z,19.55
2017-11-07T21:03:01.807Z,19.12
2017-11-07T21:05:30.121Z,19.05
2017-11-07T21:07:58.073Z,20.25
2017-11-07T21:10:31.460Z,18.45
2017-11-07T21:12:58.803Z,18.65
2017-11-07T21:15:26.605Z,17.52
2017-11-07T21:17:53.052Z,18.02
2017-11-07T21:20:20.454Z,15.32
2017-11-07T21:22:46.910Z,17.08
2017-11-07T21:25:13.201Z,18.25
2017-11-07T21:27:39.533Z,19.12
2017-11-07T21:30:05.885Z,17.55
2017-11-07T21:32:33.372Z,18.40
2017-11-07T21:35:00.745Z,18.75
2017-11-07T21:37:27.034Z,21.10
2017-11-07T21:39:54.643Z,20.92
2017-11-07T21:42:22.961Z,22.00
2017-11-07T21:44:50.980Z,20.27
2017-11-07T21:47:18.712Z,23.10
2017-11-07T21:49:45.178Z,23.70
2017-11-07T21:52:11.537Z,21.65
2017-11-07T21:54:39.783Z,22.70
2017-11-07T21:57:08.314Z,24.37
2017-11-07T21:59:36.036Z,25.05
2017-11-07T22:02:02.526Z,25.00
2017-11-07T22:04:30.263Z,29.10
2017-11-07T22:06:58.303Z,25.67
2017-11-07T22:09:24.769Z,26.80
2017-11-07T22:11:56.202Z,25.52
2017-11-07T22:14:23.475Z,26.30
2017-11-07T22:16:53.957Z,24.70
2017-11-07T22:19:20.844Z,24.85
2017-11-07T22:21:49.029Z,26.55
2017-11-07T22:24:15.333Z,24.50
2017-11-07T22:26:42.658Z,25.35
2017-11-07T22:29:09.082Z,24.10
2017-11-07T22:31:36.839Z,23.12
2017-11-07T22:34:04.050Z,21.30
2017-11-07T22:36:31.338Z,20.85
2017-11-07T22:38:59.010Z,21.05
2017-11-07T22:41:26.761Z,19.00
2017-11-07T22:43:53.953Z,19.50
2017-11-07T22:46:20.205Z,18.15
2017-11-07T22:48:47.928Z,19.52
2017-11-07T22:51:14.378Z,18.70
2017-11-07T22:53:41.788Z,17.35
2017-11-07T22:56:08.991Z,21.25
2017-11-07T22:58:36.419Z,17.73
2017-11-07T23:01:02.879Z,18.08
2017-11-07T23:03:30.424Z,18.62
2017-11-07T23:05:59.809Z,17.48
2017-11-07T23:08:26.144Z,18.02
2017-11-07T23:10:53.128Z,17.90
2017-11-07T23:13:20.136Z,16.15
2017-11-07T23:15:46.394Z,19.00
2017-11-07T23:18:13.705Z,17.42
2017-11-07T23:20:39.936Z,17.23
2017-11-07T23:23:07.077Z,18.70
2017-11-07T23:25:34.604Z,17.52
2017-11-07T23:28:01.778Z,17.35
2017-11-07T23:30:28.031Z,16.85
2017-11-07T23:32:55.368Z,17.12
2017-11-07T23:35:22.346Z,14.87
2017-11-07T23:37:48.575Z,15.00
2017-11-07T23:40:16.058Z,16.60
2017-11-07T23:42:43.711Z,16.45
2017-11-07T23:45:10.112Z,14.48
2017-11-07T23:47:37.652Z,15.80
2017-11-07T23:50:05.402Z,15.73
2017-11-07T23:52:33.018Z,14.82
2017-11-07T23:55:00.118Z,13.38
2017-11-07T23:57:26.373Z,15.85
2017-11-07T23:59:53.359Z,16.08
